Time;durP1;ratioP1;P1;durP2;ratioP2;P2;SDS_P1;SDS_P2;PMS_P1;PMS_P2;Temp;Humidity;BMP_temperature;BMP_pressure;BME280_temperature;BME280_humidity;BME280_pressure;Samples;Min_cycle;Max_cycle;Signal;HPM_P1;HPM_P2
2023/06/12 00:01:36;;;;;;;4.43;4.03;;;16.70;99.90;;;;;;4988826;28;20894;-60
2023/06/12 00:04:05;;;;;;;4.23;3.73;;;16.70;99.90;;;;;;4990814;28;20487;-59
2023/06/12 00:06:37;;;;;;;5.40;3.40;;;16.70;99.90;;;;;;4992190;28;20504;-59
2023/06/12 00:09:05;;;;;;;5.40;4.20;;;16.60;99.90;;;;;;4990006;28;20503;-59
2023/06/12 00:11:34;;;;;;;4.13;3.73;;;16.60;99.90;;;;;;4984087;28;20496;-59
2023/06/12 00:14:02;;;;;;;4.57;4.20;;;16.60;99.90;;;;;;4990855;28;20497;-59
2023/06/12 00:16:30;;;;;;;4.70;3.63;;;16.60;99.90;;;;;;4995865;28;20535;-59
2023/06/12 00:18:58;;;;;;;4.67;4.20;;;16.50;99.90;;;;;;4995874;28;20551;-59
2023/06/12 00:21:26;;;;;;;3.93;3.63;;;16.50;99.90;;;;;;4991114;28;20488;-59
2023/06/12 00:23:56;;;;;;;4.20;3.80;;;16.50;99.90;;;;;;4986001;28;20568;-59
2023/06/12 00:26:24;;;;;;;4.40;4.00;;;16.40;99.90;;;;;;4984607;28;20494;-59
2023/06/12 00:28:52;;;;;;;4.83;4.33;;;16.40;99.90;;;;;;4994005;28;20925;-59
2023/06/12 00:31:21;;;;;;;5.70;3.93;;;16.40;99.90;;;;;;4988290;28;21072;-59
2023/06/12 00:33:50;;;;;;;4.07;3.77;;;16.40;99.90;;;;;;4993808;28;20503;-59
2023/06/12 00:36:18;;;;;;;5.33;4.30;;;16.30;99.90;;;;;;4985802;28;20464;-58
2023/06/12 00:38:46;;;;;;;4.00;3.60;;;16.30;99.90;;;;;;4991635;28;20555;-59
2023/06/12 00:41:16;;;;;;;4.80;4.30;;;16.30;99.90;;;;;;4990102;28;20585;-59
2023/06/12 00:43:44;;;;;;;3.90;3.60;;;16.20;99.90;;;;;;4996184;28;20551;-60
2023/06/12 00:46:12;;;;;;;4.53;4.10;;;16.20;99.90;;;;;;4998120;28;20500;-59
2023/06/12 00:48:42;;;;;;;4.10;3.67;;;16.20;99.90;;;;;;4997166;28;20477;-59
2023/06/12 00:51:10;;;;;;;4.63;4.33;;;16.20;99.90;;;;;;4987172;28;20487;-58
2023/06/12 00:53:38;;;;;;;5.73;3.80;;;16.10;99.90;;;;;;4985397;28;21032;-59
2023/06/12 00:56:06;;;;;;;4.93;3.87;;;16.20;99.90;;;;;;4986705;28;20906;-58
2023/06/12 00:58:36;;;;;;;4.93;4.00;;;16.10;99.90;;;;;;4991922;28;20607;-59
2023/06/12 01:01:04;;;;;;;4.97;3.80;;;16.10;99.90;;;;;;4989898;28;20658;-59
2023/06/12 01:03:33;;;;;;;4.63;4.13;;;16.10;99.90;;;;;;4992029;28;20923;-59
2023/06/12 01:06:05;;;;;;;4.90;3.93;;;16.10;99.90;;;;;;4993052;28;21021;-59
2023/06/12 01:08:38;;;;;;;5.80;4.50;;;16.10;99.90;;;;;;4989795;28;20472;-59
2023/06/12 01:11:09;;;;;;;6.63;4.57;;;16.00;99.90;;;;;;4997539;28;20492;-59
2023/06/12 01:13:39;;;;;;;4.40;4.03;;;16.00;99.90;;;;;;4997226;28;20875;-60
2023/06/12 01:16:08;;;;;;;6.53;3.67;;;16.00;99.90;;;;;;4998368;28;20468;-59
2023/06/12 01:18:36;;;;;;;4.03;3.73;;;16.00;99.90;;;;;;5002132;28;20479;-59
2023/06/12 01:21:09;;;;;;;4.53;4.10;;;15.90;99.90;;;;;;4998469;28;21008;-60
2023/06/12 01:24:01;;;;;;;5.00;4.50;;;15.90;99.90;;;;;;4995991;28;20551;-60
2023/06/12 01:26:46;;;;;;;5.37;4.13;;;15.90;99.90;;;;;;4995850;28;21139;-59
2023/06/12 01:29:44;;;;;;;4.30;3.70;;;15.90;99.90;;;;;;4996885;28;20448;-60
2023/06/12 01:32:16;;;;;;;5.43;4.47;;;15.90;99.90;;;;;;5001486;28;20576;-59
2023/06/12 01:34:51;;;;;;;5.00;4.50;;;15.90;99.90;;;;;;5002739;28;20492;-59
2023/06/12 01:37:26;;;;;;;4.60;4.20;;;15.80;99.90;;;;;;5000455;28;20473;-59
2023/06/12 01:39:57;;;;;;;5.37;4.00;;;15.80;99.90;;;;;;4996504;28;20471;-59
2023/06/12 01:42:27;;;;;;;4.40;4.00;;;15.80;99.90;;;;;;4995603;28;20891;-59
2023/06/12 01:44:56;;;;;;;4.30;3.90;;;15.80;99.90;;;;;;4997639;28;20901;-59
2023/06/12 01:47:25;;;;;;;4.50;4.10;;;15.80;99.90;;;;;;4996013;28;20500;-59
2023/06/12 01:49:53;;;;;;;5.93;4.47;;;15.80;99.90;;;;;;4997240;28;20472;-58
2023/06/12 01:52:22;;;;;;;5.10;4.70;;;15.70;99.90;;;;;;4991816;28;20504;-59
2023/06/12 01:54:50;;;;;;;4.47;4.10;;;15.70;99.90;;;;;;4990820;28;20480;-59
2023/06/12 01:57:19;;;;;;;4.40;4.00;;;15.60;99.90;;;;;;4995357;28;20465;-60
2023/06/12 01:59:49;;;;;;;5.23;4.40;;;15.60;99.90;;;;;;5008148;28;20985;-59
2023/06/12 02:02:17;;;;;;;4.50;4.10;;;15.60;99.90;;;;;;4993624;28;20776;-59
2023/06/12 02:04:47;;;;;;;4.60;4.20;;;15.60;99.90;;;;;;4996615;28;20553;-58
2023/06/12 02:07:15;;;;;;;4.63;4.30;;;15.50;99.90;;;;;;4996242;28;21049;-59
2023/06/12 02:09:43;;;;;;;4.53;4.20;;;15.60;99.90;;;;;;4993490;28;20520;-59
2023/06/12 02:12:11;;;;;;;5.40;4.87;;;15.50;99.90;;;;;;4997485;28;20820;-59
2023/06/12 02:14:41;;;;;;;5.13;4.23;;;15.50;99.90;;;;;;4995348;28;20593;-59
2023/06/12 02:17:13;;;;;;;5.00;4.60;;;15.50;99.90;;;;;;4990227;28;20528;-59
2023/06/12 02:19:41;;;;;;;5.37;4.40;;;15.50;99.90;;;;;;5001106;28;20476;-58
2023/06/12 02:22:11;;;;;;;4.77;4.37;;;15.50;99.90;;;;;;4991809;28;20497;-58
2023/06/12 02:24:39;;;;;;;4.97;4.50;;;15.40;99.90;;;;;;4993027;28;20574;-59
2023/06/12 02:27:08;;;;;;;5.73;4.83;;;15.40;99.90;;;;;;4989926;28;20497;-59
2023/06/12 02:29:36;;;;;;;5.10;4.60;;;15.40;99.90;;;;;;4994079;28;20898;-59
2023/06/12 02:32:04;;;;;;;5.50;4.97;;;15.30;99.90;;;;;;4993864;28;20596;-59
2023/06/12 02:34:33;;;;;;;5.70;4.90;;;15.30;99.90;;;;;;4989343;28;20504;-59
2023/06/12 02:37:01;;;;;;;8.03;4.70;;;15.30;99.90;;;;;;4996035;28;20482;-59
2023/06/12 02:39:31;;;;;;;6.00;4.63;;;15.30;99.90;;;;;;4995764;28;20931;-59
2023/06/12 02:41:59;;;;;;;5.83;4.53;;;15.30;99.90;;;;;;4988156;28;20587;-59
2023/06/12 02:44:27;;;;;;;7.70;5.23;;;15.30;99.90;;;;;;4997122;28;20521;-59
2023/06/12 02:46:57;;;;;;;5.30;4.27;;;15.30;99.90;;;;;;4995635;28;21084;-59
2023/06/12 02:49:29;;;;;;;4.60;4.20;;;15.20;99.90;;;;;;4991816;28;20494;-59
2023/06/12 02:51:58;;;;;;;7.60;4.80;;;15.20;99.90;;;;;;4993567;28;20497;-59
2023/06/12 02:54:30;;;;;;;5.20;4.70;;;15.10;99.90;;;;;;4987122;28;20499;-59
2023/06/12 02:56:58;;;;;;;5.20;4.80;;;15.10;99.90;;;;;;4988061;28;21000;-58
2023/06/12 02:59:26;;;;;;;4.93;4.43;;;15.10;99.90;;;;;;4996664;28;20504;-59
2023/06/12 03:01:54;;;;;;;5.57;4.83;;;15.10;99.90;;;;;;4992068;28;21024;-59
2023/06/12 03:04:22;;;;;;;4.87;4.47;;;15.10;99.90;;;;;;4995157;28;20603;-59
2023/06/12 03:06:53;;;;;;;5.47;4.90;;;15.00;99.90;;;;;;4994186;28;20500;-58
2023/06/12 03:09:23;;;;;;;5.27;4.70;;;15.00;99.90;;;;;;4992033;28;20559;-58
2023/06/12 03:11:54;;;;;;;6.10;4.57;;;15.00;99.90;;;;;;4987975;28;20545;-58
2023/06/12 03:14:24;;;;;;;8.23;5.33;;;15.00;99.90;;;;;;4993860;28;21275;-59
2023/06/12 03:16:52;;;;;;;5.30;4.90;;;15.00;99.90;;;;;;4994273;28;21127;-59
2023/06/12 03:19:20;;;;;;;8.93;5.57;;;15.00;99.90;;;;;;4996244;28;20504;-59
2023/06/12 03:21:48;;;;;;;7.97;7.17;;;15.00;99.90;;;;;;4996529;28;20512;-59
2023/06/12 03:24:16;;;;;;;11.10;6.67;;;15.00;99.90;;;;;;4998056;28;21167;-59
2023/06/12 03:26:44;;;;;;;11.60;7.27;;;14.90;99.90;;;;;;4994045;28;20484;-59
2023/06/12 03:29:14;;;;;;;7.93;5.90;;;14.90;99.90;;;;;;4998870;28;20480;-59
2023/06/12 03:31:42;;;;;;;6.90;5.13;;;14.90;99.90;;;;;;4996318;28;20489;-59
2023/06/12 03:34:11;;;;;;;5.50;5.00;;;14.90;99.90;;;;;;4992838;28;20517;-59
2023/06/12 03:36:39;;;;;;;5.33;4.83;;;14.90;99.90;;;;;;4994802;28;20829;-59
2023/06/12 03:39:09;;;;;;;5.40;4.90;;;14.90;99.90;;;;;;4995650;28;20505;-59
2023/06/12 03:41:38;;;;;;;5.20;4.80;;;14.90;99.90;;;;;;4996092;28;20546;-59
2023/06/12 03:44:06;;;;;;;5.53;4.97;;;14.90;99.90;;;;;;4995350;28;20488;-59
2023/06/12 03:46:36;;;;;;;6.10;5.50;;;15.00;99.90;;;;;;4995774;28;20542;-59
2023/06/12 03:49:04;;;;;;;6.10;4.90;;;15.00;99.90;;;;;;4994948;28;20990;-59
2023/06/12 03:51:35;;;;;;;7.77;5.20;;;15.00;99.90;;;;;;4994525;28;20587;-59
2023/06/12 03:54:03;;;;;;;8.00;5.30;;;15.00;99.90;;;;;;4988579;28;20910;-59
2023/06/12 03:56:31;;;;;;;5.93;5.37;;;15.00;99.90;;;;;;4990773;28;20999;-58
2023/06/12 03:59:00;;;;;;;5.47;4.97;;;15.00;99.90;;;;;;4989558;28;20580;-59
2023/06/12 04:01:28;;;;;;;5.67;5.17;;;15.00;99.90;;;;;;4984452;28;20481;-59
2023/06/12 04:03:57;;;;;;;5.30;4.80;;;15.10;99.90;;;;;;4984486;28;20840;-59
2023/06/12 04:06:26;;;;;;;5.80;5.23;;;15.10;99.90;;;;;;4989693;28;20468;-57
2023/06/12 04:08:54;;;;;;;6.17;5.57;;;15.10;99.90;;;;;;4989429;28;20623;-59
2023/06/12 04:11:23;;;;;;;8.20;5.50;;;15.10;99.90;;;;;;4982247;28;20484;-61
2023/06/12 04:13:51;;;;;;;5.90;5.40;;;15.20;99.90;;;;;;5002143;28;20540;-58
2023/06/12 04:16:20;;;;;;;6.03;5.43;;;15.20;99.90;;;;;;5021306;28;20468;-59
2023/06/12 04:18:48;;;;;;;6.43;5.30;;;15.20;99.90;;;;;;5001670;28;20974;-59
2023/06/12 04:21:18;;;;;;;7.60;5.33;;;15.30;99.90;;;;;;4989777;28;20500;-60
2023/06/12 04:23:47;;;;;;;5.97;5.47;;;15.30;99.90;;;;;;4987930;28;20949;-59
2023/06/12 04:26:15;;;;;;;6.47;5.40;;;15.40;99.90;;;;;;4991592;28;20535;-59
2023/06/12 04:28:46;;;;;;;6.40;5.67;;;15.40;99.90;;;;;;4993600;28;21116;-59
2023/06/12 04:31:15;;;;;;;6.07;5.47;;;15.50;99.90;;;;;;4990116;28;20849;-58
2023/06/12 04:33:43;;;;;;;7.30;5.83;;;15.50;99.90;;;;;;4987349;28;20499;-58
2023/06/12 04:36:17;;;;;;;7.10;5.40;;;15.50;99.90;;;;;;4993289;28;20538;-57
2023/06/12 04:38:50;;;;;;;6.80;6.10;;;15.60;99.90;;;;;;4995115;28;20488;-59
2023/06/12 04:41:19;;;;;;;6.63;5.87;;;15.60;99.90;;;;;;5005820;28;20512;-58
2023/06/12 04:43:48;;;;;;;8.23;6.10;;;15.60;99.90;;;;;;4989506;28;20574;-60
2023/06/12 04:46:18;;;;;;;7.70;6.37;;;15.70;99.90;;;;;;4985006;28;21279;-59
2023/06/12 04:48:47;;;;;;;6.20;5.70;;;15.70;99.90;;;;;;4991689;28;20497;-59
2023/06/12 04:51:15;;;;;;;7.03;5.57;;;15.70;99.90;;;;;;4994580;28;21024;-58
2023/06/12 04:53:47;;;;;;;6.80;6.17;;;15.60;99.90;;;;;;4985763;28;20484;-59
2023/06/12 04:56:20;;;;;;;7.60;5.90;;;15.70;99.90;;;;;;4993196;28;20903;-59
2023/06/12 04:58:49;;;;;;;6.77;6.07;;;15.70;99.90;;;;;;4990886;28;20464;-58
2023/06/12 05:01:19;;;;;;;11.03;6.53;;;15.70;99.90;;;;;;4988426;28;20496;-59
2023/06/12 05:03:49;;;;;;;6.57;5.87;;;15.70;99.90;;;;;;4987641;28;20856;-58
2023/06/12 05:06:17;;;;;;;8.43;5.60;;;15.70;99.90;;;;;;4987607;28;20479;-59
2023/06/12 05:08:45;;;;;;;7.07;6.17;;;15.70;99.90;;;;;;4989466;28;20493;-60
2023/06/12 05:11:13;;;;;;;8.50;6.80;;;15.70;99.90;;;;;;4988583;28;20996;-59
2023/06/12 05:13:43;;;;;;;5.80;5.27;;;15.80;99.90;;;;;;4991168;28;20614;-59
2023/06/12 05:16:11;;;;;;;7.03;6.37;;;15.90;99.90;;;;;;4991151;28;20478;-58
2023/06/12 05:18:39;;;;;;;10.00;6.63;;;16.00;99.90;;;;;;4986329;28;20472;-58
2023/06/12 05:21:07;;;;;;;6.33;5.83;;;16.20;99.90;;;;;;4993050;28;20483;-60
2023/06/12 05:23:35;;;;;;;6.40;5.80;;;16.30;99.90;;;;;;4995264;28;20557;-58
2023/06/12 05:26:04;;;;;;;10.40;6.57;;;16.30;99.90;;;;;;4984494;28;20492;-60
2023/06/12 05:28:32;;;;;;;7.60;6.90;;;16.50;99.90;;;;;;4991486;28;20642;-60
2023/06/12 05:31:01;;;;;;;7.20;6.50;;;16.50;99.90;;;;;;4985164;28;20476;-59
2023/06/12 05:33:29;;;;;;;9.57;6.17;;;16.60;99.90;;;;;;4987602;28;21035;-58
2023/06/12 05:35:58;;;;;;;7.77;6.00;;;16.70;99.90;;;;;;4983532;28;20484;-64
2023/06/12 05:38:26;;;;;;;8.40;6.60;;;16.80;99.90;;;;;;4982890;28;20474;-59
2023/06/12 05:40:54;;;;;;;8.67;6.80;;;16.80;99.90;;;;;;4982170;28;20532;-59
2023/06/12 05:43:22;;;;;;;7.40;6.80;;;16.90;99.90;;;;;;4983235;28;20497;-59
2023/06/12 05:45:50;;;;;;;8.07;6.27;;;17.00;99.90;;;;;;4989748;28;20468;-58
2023/06/12 05:48:20;;;;;;;7.53;6.60;;;17.00;99.90;;;;;;4982090;28;20496;-59
2023/06/12 05:50:48;;;;;;;8.00;7.20;;;17.10;99.90;;;;;;4944873;28;20504;-59
2023/06/12 05:53:16;;;;;;;7.37;6.57;;;17.10;99.90;;;;;;4955932;28;20613;-57
2023/06/12 05:55:44;;;;;;;9.27;6.80;;;17.30;99.90;;;;;;4979765;28;20472;-59
2023/06/12 05:58:12;;;;;;;7.33;6.73;;;17.40;99.90;;;;;;4989874;28;20460;-58
2023/06/12 06:00:43;;;;;;;8.40;7.30;;;17.50;99.90;;;;;;4999591;28;20469;-58
2023/06/12 06:03:12;;;;;;;7.73;6.90;;;17.60;99.90;;;;;;4995814;28;20577;-59
2023/06/12 06:05:42;;;;;;;8.50;6.90;;;17.70;99.90;;;;;;4988838;28;20472;-58
2023/06/12 06:08:12;;;;;;;7.50;6.80;;;17.80;99.90;;;;;;4989482;28;20524;-65
2023/06/12 06:10:40;;;;;;;10.40;7.20;;;17.90;99.90;;;;;;4980168;28;21533;-59
2023/06/12 06:13:08;;;;;;;7.87;7.07;;;18.00;99.90;;;;;;4983640;28;20488;-59
2023/06/12 06:15:36;;;;;;;9.17;6.93;;;18.10;99.90;;;;;;4984777;28;21730;-59
2023/06/12 06:18:05;;;;;;;8.93;7.40;;;18.20;99.90;;;;;;4974043;28;20573;-58
2023/06/12 06:20:33;;;;;;;8.80;7.60;;;18.30;99.90;;;;;;4978545;28;20467;-58
2023/06/12 06:23:03;;;;;;;9.77;7.13;;;18.40;99.90;;;;;;4977745;28;20583;-58
2023/06/12 06:25:31;;;;;;;8.47;7.50;;;18.60;99.90;;;;;;4975843;28;20476;-62
2023/06/12 06:27:59;;;;;;;8.40;7.60;;;18.70;99.90;;;;;;4986511;28;20476;-62
2023/06/12 06:30:27;;;;;;;11.47;7.63;;;18.70;99.90;;;;;;4975804;28;20681;-62
2023/06/12 06:32:56;;;;;;;7.60;7.10;;;18.90;99.90;;;;;;4970257;28;20521;-62
2023/06/12 06:35:24;;;;;;;8.80;7.50;;;19.00;99.90;;;;;;4985998;28;20477;-62
2023/06/12 06:37:52;;;;;;;8.47;7.40;;;19.10;99.90;;;;;;4980285;28;21057;-62
2023/06/12 06:40:22;;;;;;;8.87;7.63;;;19.20;99.90;;;;;;4979256;28;20577;-63
2023/06/12 06:42:50;;;;;;;8.30;7.57;;;19.40;99.90;;;;;;4972408;28;21016;-62
2023/06/12 06:45:18;;;;;;;9.20;7.63;;;19.50;99.90;;;;;;4979501;28;20473;-62
2023/06/12 06:47:46;;;;;;;8.83;6.93;;;19.60;99.90;;;;;;4971668;28;21019;-62
2023/06/12 06:50:14;;;;;;;7.57;6.87;;;19.70;99.90;;;;;;4975793;28;21833;-62
2023/06/12 06:52:42;;;;;;;7.47;6.80;;;19.70;99.90;;;;;;4976147;28;21094;-62
2023/06/12 06:55:10;;;;;;;8.67;7.83;;;19.90;99.90;;;;;;4974783;28;20542;-62
2023/06/12 06:57:40;;;;;;;8.97;6.97;;;20.00;99.90;;;;;;4974431;28;21288;-62
2023/06/12 07:00:09;;;;;;;8.20;7.27;;;20.10;99.90;;;;;;4978835;28;20507;-60
2023/06/12 07:02:39;;;;;;;7.80;7.10;;;20.20;99.90;;;;;;4985448;28;20531;-59
2023/06/12 07:05:08;;;;;;;7.67;7.07;;;20.20;99.90;;;;;;4997549;28;20475;-60
2023/06/12 07:07:38;;;;;;;8.67;7.33;;;20.30;99.90;;;;;;4996855;28;20983;-59
2023/06/12 07:10:23;;;;;;;7.50;7.00;;;20.50;99.90;;;;;;4994699;28;20500;-61
2023/06/12 07:12:56;;;;;;;8.50;7.40;;;20.60;99.90;;;;;;5005065;28;20520;-58
2023/06/12 07:15:25;;;;;;;7.43;6.73;;;20.70;99.90;;;;;;4992120;28;20472;-58
2023/06/12 07:17:53;;;;;;;7.50;6.90;;;20.80;99.90;;;;;;4989935;28;21726;-60
2023/06/12 07:20:22;;;;;;;7.37;6.70;;;20.90;99.90;;;;;;4989655;28;20477;-60
2023/06/12 07:22:50;;;;;;;8.10;7.30;;;21.00;99.90;;;;;;4985417;28;20534;-59
2023/06/12 07:25:18;;;;;;;7.33;6.57;;;21.10;99.90;;;;;;4990108;28;20973;-59
2023/06/12 07:27:46;;;;;;;7.60;6.77;;;21.20;99.90;;;;;;4993022;28;20866;-60
2023/06/12 07:30:16;;;;;;;6.67;6.07;;;21.30;99.90;;;;;;4988525;28;20533;-60
2023/06/12 07:32:44;;;;;;;7.33;6.60;;;21.40;99.90;;;;;;4973272;28;20491;-60
2023/06/12 07:35:12;;;;;;;7.90;6.67;;;21.50;99.90;;;;;;4987114;28;20479;-59
2023/06/12 07:37:40;;;;;;;6.90;6.20;;;21.50;99.90;;;;;;4988633;28;20985;-59
2023/06/12 07:40:10;;;;;;;7.30;6.70;;;21.60;99.90;;;;;;4988170;28;20467;-60
2023/06/12 07:42:38;;;;;;;7.03;6.53;;;21.70;99.90;;;;;;4999707;28;20512;-60
2023/06/12 07:45:07;;;;;;;7.10;6.50;;;21.80;99.90;;;;;;4999815;28;20464;-61
2023/06/12 07:47:36;;;;;;;8.10;6.90;;;21.90;99.90;;;;;;4986815;28;20508;-60
2023/06/12 07:50:05;;;;;;;7.67;7.03;;;22.00;99.90;;;;;;4987650;28;20510;-60
2023/06/12 07:52:33;;;;;;;6.47;5.97;;;22.00;99.90;;;;;;4986180;28;20489;-60
2023/06/12 07:55:03;;;;;;;6.93;6.33;;;22.10;99.90;;;;;;4990011;28;20477;-59
2023/06/12 07:57:31;;;;;;;6.87;6.10;;;22.20;99.90;;;;;;4991736;28;21977;-60
2023/06/12 08:00:00;;;;;;;7.90;6.40;;;22.30;99.90;;;;;;4981244;28;20497;-60
2023/06/12 08:02:31;;;;;;;6.87;6.20;;;22.40;99.90;;;;;;4987640;28;20489;-59
2023/06/12 08:05:03;;;;;;;6.90;6.40;;;22.40;99.90;;;;;;4980331;28;20528;-60
2023/06/12 08:07:33;;;;;;;7.00;6.50;;;22.50;99.90;;;;;;4982798;28;20476;-60
2023/06/12 08:10:01;;;;;;;7.07;6.50;;;22.70;95.70;;;;;;4993477;28;20499;-60
2023/06/12 08:12:29;;;;;;;7.17;6.47;;;22.80;96.70;;;;;;4987235;28;20593;-60
2023/06/12 08:14:57;;;;;;;5.90;5.50;;;22.90;97.70;;;;;;4987745;28;20503;-59
2023/06/12 08:17:26;;;;;;;7.13;6.50;;;23.00;96.50;;;;;;4990027;28;20500;-58
2023/06/12 08:19:54;;;;;;;6.70;6.10;;;23.10;96.70;;;;;;4990172;28;20500;-58
2023/06/12 08:22:24;;;;;;;7.10;6.50;;;23.20;95.40;;;;;;4988348;28;20558;-59
2023/06/12 08:24:52;;;;;;;8.13;5.80;;;23.30;85.30;;;;;;4990877;28;20923;-61
2023/06/12 08:27:20;;;;;;;8.93;6.03;;;23.40;83.30;;;;;;4983527;28;20513;-59
2023/06/12 08:29:48;;;;;;;7.67;6.87;;;23.50;81.60;;;;;;4988257;28;20492;-58
2023/06/12 08:32:16;;;;;;;5.63;5.23;;;23.60;79.20;;;;;;4990858;28;20998;-59
2023/06/12 08:34:45;;;;;;;6.43;5.80;;;23.70;76.30;;;;;;4984154;28;20567;-58
2023/06/12 08:37:13;;;;;;;9.30;6.13;;;23.80;76.90;;;;;;5000975;28;20563;-59
2023/06/12 08:39:42;;;;;;;6.27;5.77;;;23.90;70.90;;;;;;4992649;28;21108;-59
2023/06/12 08:42:15;;;;;;;9.97;6.63;;;24.00;74.80;;;;;;4990605;28;20500;-59
2023/06/12 08:44:45;;;;;;;6.90;6.20;;;24.00;72.80;;;;;;4988516;28;20580;-59
2023/06/12 08:47:14;;;;;;;6.23;5.60;;;24.10;67.70;;;;;;4990211;28;20468;-58
2023/06/12 08:49:43;;;;;;;6.33;5.73;;;24.20;67.10;;;;;;4989044;28;20497;-58
2023/06/12 08:52:13;;;;;;;6.60;6.00;;;24.20;73.60;;;;;;4984117;28;20489;-59
2023/06/12 08:54:46;;;;;;;6.87;5.77;;;24.30;72.00;;;;;;4987383;28;21068;-60
2023/06/12 08:57:14;;;;;;;6.50;6.00;;;24.40;65.90;;;;;;4988861;28;20981;-59
2023/06/12 08:59:42;;;;;;;6.00;5.50;;;24.50;66.80;;;;;;4994688;28;20468;-58
2023/06/12 09:02:11;;;;;;;5.93;5.43;;;24.60;65.70;;;;;;4986882;28;20923;-58
2023/06/12 09:04:47;;;;;;;6.73;6.20;;;24.70;59.40;;;;;;4988560;28;20580;-59
2023/06/12 09:07:18;;;;;;;6.00;5.27;;;24.80;59.00;;;;;;4989604;28;21027;-58
2023/06/12 09:09:48;;;;;;;5.93;5.40;;;24.80;57.20;;;;;;4991800;28;20494;-58
2023/06/12 09:12:16;;;;;;;6.60;6.10;;;24.90;60.40;;;;;;4989745;28;20488;-59
2023/06/12 09:14:48;;;;;;;6.23;5.73;;;24.90;57.20;;;;;;4988067;28;20502;-58
2023/06/12 09:17:17;;;;;;;6.80;5.80;;;25.00;54.80;;;;;;4984589;28;20507;-58
2023/06/12 09:19:46;;;;;;;6.10;5.60;;;25.00;55.40;;;;;;4994491;28;20476;-59
2023/06/12 09:22:14;;;;;;;6.13;5.63;;;25.10;56.40;;;;;;4984641;28;21242;-58
2023/06/12 09:24:42;;;;;;;6.43;5.83;;;25.20;57.60;;;;;;4992249;28;20512;-59
2023/06/12 09:27:12;;;;;;;5.87;5.47;;;25.30;54.60;;;;;;4989023;28;20472;-59
2023/06/12 09:29:42;;;;;;;6.10;5.70;;;25.40;56.00;;;;;;4985697;28;20465;-59
2023/06/12 09:32:13;;;;;;;6.43;5.60;;;25.50;56.60;;;;;;4989126;28;20489;-59
2023/06/12 09:34:46;;;;;;;6.53;6.03;;;25.50;54.60;;;;;;4994122;28;20603;-59
2023/06/12 09:37:16;;;;;;;5.93;5.43;;;25.60;50.90;;;;;;4989624;28;20574;-59
2023/06/12 09:39:44;;;;;;;5.73;5.07;;;25.70;46.50;;;;;;4988498;28;20966;-59
2023/06/12 09:42:16;;;;;;;5.17;4.77;;;25.70;46.20;;;;;;4986713;28;20502;-59
2023/06/12 09:44:44;;;;;;;5.33;4.90;;;25.80;47.10;;;;;;4990434;28;20491;-59
2023/06/12 09:47:12;;;;;;;5.77;5.17;;;25.80;47.20;;;;;;4994948;28;20474;-58
2023/06/12 09:49:40;;;;;;;5.67;5.13;;;25.80;46.90;;;;;;5000754;28;20476;-59
2023/06/12 09:52:09;;;;;;;5.33;4.90;;;25.90;42.10;;;;;;4994605;28;20551;-58
2023/06/12 09:54:40;;;;;;;5.73;5.03;;;25.90;41.60;;;;;;4989748;28;20490;-57
2023/06/12 09:57:09;;;;;;;5.50;5.00;;;25.90;40.70;;;;;;4985252;28;20850;-62
2023/06/12 09:59:40;;;;;;;5.50;5.10;;;25.90;41.60;;;;;;4982797;28;20608;-59
2023/06/12 10:02:12;;;;;;;5.80;5.40;;;25.90;40.20;;;;;;4993576;28;20489;-60
2023/06/12 10:04:46;;;;;;;7.63;5.73;;;26.00;38.50;;;;;;4986106;28;20515;-59
2023/06/12 10:07:19;;;;;;;5.80;5.30;;;26.00;38.90;;;;;;4983413;28;20905;-59
2023/06/12 10:09:48;;;;;;;5.90;5.47;;;26.00;40.40;;;;;;4982112;28;21001;-59
2023/06/12 10:12:18;;;;;;;5.80;5.30;;;26.00;41.30;;;;;;4991953;28;21035;-59
2023/06/12 10:14:48;;;;;;;5.60;5.10;;;26.10;41.60;;;;;;4990274;28;20491;-59
2023/06/12 10:17:18;;;;;;;5.87;5.37;;;26.20;40.00;;;;;;4988653;28;20652;-61
2023/06/12 10:19:47;;;;;;;5.80;5.40;;;26.20;39.50;;;;;;4995092;28;20475;-60
2023/06/12 10:22:15;;;;;;;6.13;5.73;;;26.20;39.20;;;;;;4985608;28;21094;-59
2023/06/12 10:24:44;;;;;;;5.73;5.23;;;26.10;41.00;;;;;;4991023;28;20609;-59
2023/06/12 10:27:13;;;;;;;5.80;5.40;;;26.10;41.30;;;;;;4981734;28;20475;-60
2023/06/12 10:29:42;;;;;;;8.13;5.47;;;26.20;39.00;;;;;;4987100;28;20517;-59
2023/06/12 10:32:15;;;;;;;6.03;5.57;;;26.40;39.70;;;;;;4986692;28;20603;-58
2023/06/12 10:34:45;;;;;;;6.47;5.90;;;26.50;38.20;;;;;;4988096;28;20607;-59
2023/06/12 10:37:24;;;;;;;5.90;5.30;;;26.50;39.60;;;;;;4988830;28;20469;-59
2023/06/12 10:40:10;;;;;;;6.00;5.50;;;26.60;39.90;;;;;;4997801;28;20476;-60
2023/06/12 10:42:43;;;;;;;5.97;5.47;;;26.70;37.50;;;;;;4985114;28;20500;-59
2023/06/12 10:45:24;;;;;;;5.63;5.23;;;26.80;36.70;;;;;;4986464;28;20476;-60
2023/06/12 10:48:17;;;;;;;6.07;5.50;;;26.80;37.30;;;;;;4991058;28;20958;-60
2023/06/12 10:50:49;;;;;;;5.70;5.13;;;26.90;37.80;;;;;;4986142;28;21048;-60
2023/06/12 10:53:21;;;;;;;6.40;5.80;;;26.90;38.00;;;;;;4993297;28;20495;-62
2023/06/12 10:55:49;;;;;;;5.83;5.20;;;27.00;36.40;;;;;;4989180;28;21009;-59
2023/06/12 10:58:21;;;;;;;5.10;4.80;;;27.00;35.40;;;;;;4991929;28;20487;-59
2023/06/12 11:00:51;;;;;;;5.93;5.47;;;27.10;35.60;;;;;;4981742;28;20473;-60
2023/06/12 11:03:29;;;;;;;8.80;5.07;;;27.10;33.60;;;;;;4992127;28;20845;-60
2023/06/12 11:06:08;;;;;;;6.67;4.60;;;27.10;36.20;;;;;;4991357;28;20603;-60
2023/06/12 11:08:36;;;;;;;5.97;5.40;;;27.10;33.90;;;;;;4990860;28;20537;-59
2023/06/12 11:11:07;;;;;;;5.63;5.10;;;27.20;34.30;;;;;;4990360;28;20546;-60
2023/06/12 11:13:36;;;;;;;5.23;4.80;;;27.20;33.20;;;;;;4991344;28;20484;-60
2023/06/12 11:16:05;;;;;;;5.17;4.77;;;27.30;32.90;;;;;;4993780;28;20476;-61
2023/06/12 11:18:34;;;;;;;4.87;4.47;;;27.30;33.00;;;;;;4974156;28;20475;-62
2023/06/12 11:21:03;;;;;;;5.10;4.70;;;27.40;33.40;;;;;;4978533;28;20526;-64
2023/06/12 11:23:31;;;;;;;5.00;4.70;;;27.50;32.30;;;;;;4985780;28;20587;-63
2023/06/12 11:26:00;;;;;;;6.00;4.87;;;27.50;32.00;;;;;;4976748;28;20482;-63
2023/06/12 11:28:29;;;;;;;5.90;4.47;;;27.60;31.60;;;;;;4980940;28;20535;-63
2023/06/12 11:30:57;;;;;;;4.80;4.40;;;27.60;31.30;;;;;;4987995;28;20512;-63
2023/06/12 11:33:39;;;;;;;4.90;4.50;;;27.50;31.30;;;;;;4987980;28;20497;-62
2023/06/12 11:36:07;;;;;;;4.03;3.83;;;27.60;30.00;;;;;;4990936;28;20843;-60
2023/06/12 11:38:35;;;;;;;5.13;4.63;;;27.60;32.50;;;;;;4981555;28;20460;-60
2023/06/12 11:41:11;;;;;;;4.53;4.20;;;27.70;31.40;;;;;;4986396;28;20499;-60
2023/06/12 11:43:39;;;;;;;5.07;4.57;;;27.80;30.20;;;;;;4983411;28;20515;-59
2023/06/12 11:46:07;;;;;;;6.37;4.40;;;27.90;29.00;;;;;;4976940;28;20483;-60
2023/06/12 11:48:35;;;;;;;7.87;4.50;;;28.00;29.40;;;;;;4989987;28;20481;-60
2023/06/12 11:51:08;;;;;;;4.50;4.10;;;28.10;29.00;;;;;;4979259;28;20593;-61
2023/06/12 11:53:36;;;;;;;4.63;3.73;;;28.10;28.10;;;;;;4992679;28;21013;-61
2023/06/12 11:56:05;;;;;;;5.17;4.17;;;28.10;28.50;;;;;;4991827;28;20476;-61
2023/06/12 11:58:39;;;;;;;4.60;4.20;;;28.10;29.30;;;;;;4989083;28;20562;-60
2023/06/12 12:01:13;;;;;;;4.20;3.90;;;28.10;29.20;;;;;;4991271;28;21545;-59
2023/06/12 12:03:44;;;;;;;4.90;4.00;;;28.30;27.70;;;;;;4991469;28;20575;-59
2023/06/12 12:06:13;;;;;;;5.20;4.10;;;28.20;28.90;;;;;;4983570;28;20535;-59
2023/06/12 12:08:42;;;;;;;4.63;4.20;;;28.30;29.60;;;;;;4992679;28;20475;-60
2023/06/12 12:11:17;;;;;;;5.87;3.90;;;28.40;27.90;;;;;;4989170;28;20493;-60
2023/06/12 12:13:52;;;;;;;4.00;3.63;;;28.40;29.20;;;;;;4993061;28;20483;-60
2023/06/12 12:16:26;;;;;;;4.77;4.37;;;28.50;28.40;;;;;;4989433;28;20550;-60
2023/06/12 12:18:54;;;;;;;5.10;3.50;;;28.50;28.70;;;;;;4973541;28;20602;-59
2023/06/12 12:21:24;;;;;;;4.40;4.00;;;28.60;30.20;;;;;;4985061;28;20576;-58
2023/06/12 12:23:53;;;;;;;6.17;3.50;;;28.70;28.90;;;;;;4989778;28;21145;-61
2023/06/12 12:26:22;;;;;;;4.97;4.00;;;28.80;28.90;;;;;;4988462;28;20456;-60
2023/06/12 12:28:50;;;;;;;6.40;3.83;;;29.00;29.30;;;;;;4992368;28;20476;-61
2023/06/12 12:31:18;;;;;;;4.43;4.17;;;29.10;28.20;;;;;;4990294;28;20866;-61
2023/06/12 12:33:46;;;;;;;4.43;4.07;;;29.30;28.20;;;;;;4988377;28;21070;-61
2023/06/12 12:36:14;;;;;;;6.50;4.30;;;29.40;28.20;;;;;;4979293;28;20862;-60
2023/06/12 12:38:43;;;;;;;4.23;3.87;;;29.50;27.30;;;;;;4984132;28;20493;-60
2023/06/12 12:41:11;;;;;;;4.60;3.90;;;29.60;27.60;;;;;;4978138;28;20485;-60
2023/06/12 12:43:39;;;;;;;3.90;3.60;;;29.70;28.40;;;;;;4987292;28;20517;-60
2023/06/12 12:46:07;;;;;;;4.50;4.10;;;29.80;28.20;;;;;;4994315;28;21108;-60
2023/06/12 12:48:36;;;;;;;4.87;4.37;;;30.00;27.10;;;;;;4993168;28;20974;-59
2023/06/12 12:51:04;;;;;;;5.40;3.93;;;30.00;25.80;;;;;;4988564;28;20556;-59
2023/06/12 12:53:37;;;;;;;4.20;3.80;;;30.00;26.20;;;;;;4990035;28;21680;-59
2023/06/12 12:56:07;;;;;;;4.23;3.97;;;30.10;26.70;;;;;;4986519;28;20484;-62
2023/06/12 12:58:35;;;;;;;4.37;3.97;;;30.20;26.30;;;;;;4979560;28;20484;-62